Auroraville, Wisconsin
Current Conditions -  °F | °C
As of 11:56 PM on Monday 20 Oct 2014 (Local Time) from KY50 Reporting Station
Overcast Overcast  
Wind Chill: 47°   Ceiling: 100
Heat Index: 49°   Visibility: 10mi
Dew Point: 40°   Wind: 5mph
Humidity: 71%   Direction: 10°N
Pressure: 30.06"   Gusts: NA
Location:  43.9938°N, 88.9686°W
Report Text: KY50 210456Z AUTO 01004KT 10SM OVC001 09/04 A3006 RMK AO2 TSNO T00940044 SLP178
Loading
Personal Weather Stations






























Interactive Weather Map
Tropical Storm Tracking
New forecast layout! Learn more

10-Day Weather Forecast

Advertisements
Track Severe Weather on mobile